Time;durP1;ratioP1;P1;durP2;ratioP2;P2;SDS_P1;SDS_P2;PMS_P1;PMS_P2;Temp;Humidity;BMP_temperature;BMP_pressure;BME280_temperature;BME280_humidity;BME280_pressure;Samples;Min_cycle;Max_cycle;Signal;HPM_P1;HPM_P2
2022/12/06 00:01:08;;;;;;;11.57;4.25;;;6.40;99.90;;;;;;5068212;28;20210;-75
2022/12/06 00:03:35;;;;;;;16.25;5.05;;;6.30;99.90;;;;;;5052723;28;20583;-75
2022/12/06 00:06:03;;;;;;;13.63;4.85;;;6.30;99.90;;;;;;5065545;28;20693;-75
2022/12/06 00:08:29;;;;;;;13.52;4.32;;;6.30;99.90;;;;;;5066535;28;20183;-75
2022/12/06 00:11:05;;;;;;;12.57;4.85;;;6.30;99.90;;;;;;5052639;28;20179;-75
2022/12/06 00:13:30;;;;;;;16.15;4.95;;;6.30;99.90;;;;;;5068806;28;20182;-76
2022/12/06 00:16:02;;;;;;;15.40;5.20;;;6.30;99.90;;;;;;5071980;28;20190;-75
2022/12/06 00:18:31;;;;;;;14.15;5.15;;;6.30;99.90;;;;;;5069663;28;20301;-76
2022/12/06 00:21:07;;;;;;;11.57;5.22;;;6.20;99.90;;;;;;5069988;28;20182;-75
2022/12/06 00:23:36;;;;;;;9.80;4.93;;;6.20;99.90;;;;;;5052758;28;20209;-77
2022/12/06 00:26:02;;;;;;;10.98;4.82;;;6.20;99.90;;;;;;5053704;28;20214;-75
2022/12/06 00:28:27;;;;;;;10.77;4.88;;;6.20;99.90;;;;;;5071434;28;20178;-77
2022/12/06 00:31:01;;;;;;;17.02;5.57;;;6.20;99.90;;;;;;5053768;28;20307;-75
2022/12/06 00:33:28;;;;;;;11.85;4.90;;;6.20;99.90;;;;;;5052464;28;20167;-75
2022/12/06 00:35:59;;;;;;;12.40;4.78;;;6.10;99.90;;;;;;5052426;28;20175;-75
2022/12/06 00:38:27;;;;;;;11.93;4.32;;;6.20;99.90;;;;;;5071179;28;20266;-76
2022/12/06 00:41:04;;;;;;;7.55;4.07;;;6.10;99.90;;;;;;5053596;28;20175;-78
2022/12/06 00:43:30;;;;;;;7.00;4.03;;;6.10;99.90;;;;;;5052086;28;20183;-75
2022/12/06 00:45:56;;;;;;;5.90;3.15;;;6.10;99.90;;;;;;5051972;28;20225;-75
2022/12/06 00:48:22;;;;;;;14.32;3.90;;;6.00;99.90;;;;;;5052223;28;20179;-75
2022/12/06 00:50:49;;;;;;;7.68;3.63;;;6.10;99.90;;;;;;5059262;28;20183;-75
2022/12/06 00:53:14;;;;;;;11.43;3.05;;;6.10;99.90;;;;;;5051691;28;20187;-75
2022/12/06 00:55:42;;;;;;;10.63;3.10;;;6.10;99.90;;;;;;5068293;28;20507;-75
2022/12/06 00:58:08;;;;;;;5.75;2.45;;;6.00;99.90;;;;;;5070628;28;20191;-77
2022/12/06 01:00:34;;;;;;;9.93;3.22;;;6.00;99.90;;;;;;5073445;28;20186;-76
2022/12/06 01:03:00;;;;;;;7.97;2.90;;;6.00;99.90;;;;;;5063028;28;20245;-75
2022/12/06 01:05:26;;;;;;;8.40;2.60;;;6.00;99.90;;;;;;5072340;28;20218;-75
2022/12/06 01:07:52;;;;;;;5.55;2.47;;;6.00;99.90;;;;;;5075509;28;20263;-75
2022/12/06 01:10:17;;;;;;;8.45;2.55;;;6.00;99.90;;;;;;5075470;28;20186;-75
2022/12/06 01:12:43;;;;;;;8.25;2.30;;;6.00;99.90;;;;;;5060137;28;20179;-75
2022/12/06 01:15:09;;;;;;;5.07;2.28;;;6.00;99.90;;;;;;5073784;28;20183;-75
2022/12/06 01:17:35;;;;;;;8.05;2.25;;;6.00;99.90;;;;;;5074822;28;20241;-75
2022/12/06 01:20:02;;;;;;;3.88;1.45;;;6.00;99.90;;;;;;5075404;28;20210;-75
2022/12/06 01:22:28;;;;;;;5.07;1.60;;;6.00;99.90;;;;;;5063545;28;20179;-77
2022/12/06 01:24:54;;;;;;;3.53;1.38;;;6.00;99.90;;;;;;5055886;28;20188;-76
2022/12/06 01:27:19;;;;;;;5.50;1.52;;;5.90;99.90;;;;;;5069943;28;20264;-75
2022/12/06 01:29:45;;;;;;;6.75;1.33;;;5.90;99.90;;;;;;5072451;28;20268;-76
2022/12/06 01:32:11;;;;;;;2.53;1.88;;;6.00;99.90;;;;;;5058895;28;20541;-75
2022/12/06 01:34:37;;;;;;;5.43;1.27;;;5.90;99.90;;;;;;5075372;28;20186;-75
2022/12/06 01:37:03;;;;;;;3.30;1.83;;;5.90;99.90;;;;;;5074876;28;20187;-75
2022/12/06 01:39:29;;;;;;;3.97;1.70;;;5.90;99.90;;;;;;5074358;28;20230;-75
2022/12/06 01:41:55;;;;;;;3.17;1.70;;;5.90;99.90;;;;;;5070813;28;20584;-76
2022/12/06 01:44:47;;;;;;;5.85;1.60;;;5.90;99.90;;;;;;5074949;28;20649;-75
2022/12/06 01:47:27;;;;;;;4.78;1.80;;;5.90;99.90;;;;;;5074500;28;20218;-75
2022/12/06 01:50:07;;;;;;;2.50;1.70;;;5.90;99.90;;;;;;5073748;28;20308;-75
2022/12/06 01:52:53;;;;;;;5.32;2.00;;;5.90;99.90;;;;;;5067733;28;20175;-75
2022/12/06 01:55:21;;;;;;;5.43;2.13;;;5.90;99.90;;;;;;5073725;28;20653;-74
2022/12/06 01:57:49;;;;;;;5.65;2.30;;;5.90;99.90;;;;;;5074547;28;20253;-75
2022/12/06 02:00:15;;;;;;;7.85;1.90;;;6.00;99.90;;;;;;5074895;28;20240;-76
2022/12/06 02:02:41;;;;;;;5.25;2.10;;;5.90;99.90;;;;;;5074919;28;20206;-75
2022/12/06 02:05:08;;;;;;;10.43;2.60;;;5.90;99.90;;;;;;5090667;28;20170;-75
2022/12/06 02:07:34;;;;;;;5.45;2.05;;;5.90;99.90;;;;;;5095004;28;20218;-75
2022/12/06 02:10:01;;;;;;;2.40;1.75;;;5.90;99.90;;;;;;5076702;28;20197;-75
2022/12/06 02:12:26;;;;;;;7.63;2.13;;;5.80;99.90;;;;;;5073819;28;20248;-74
2022/12/06 02:14:53;;;;;;;4.57;2.08;;;5.90;99.90;;;;;;5061637;28;20635;-74
2022/12/06 02:17:49;;;;;;;7.40;2.08;;;5.90;99.90;;;;;;5060670;28;20230;-75
2022/12/06 02:20:40;;;;;;;5.25;2.17;;;5.90;99.90;;;;;;5074192;28;20166;-75
2022/12/06 02:23:27;;;;;;;4.85;2.17;;;5.90;99.90;;;;;;5073410;28;20619;-76
2022/12/06 02:26:43;;;;;;;6.50;2.33;;;5.90;99.90;;;;;;5057317;28;20179;-75
2022/12/06 02:29:22;;;;;;;4.88;2.10;;;5.90;99.90;;;;;;5028421;28;20203;-75
2022/12/06 02:31:59;;;;;;;3.17;2.10;;;5.90;99.90;;;;;;5055557;28;20188;-75
2022/12/06 02:34:28;;;;;;;8.85;2.53;;;5.90;99.90;;;;;;5055145;28;20170;-76
2022/12/06 02:37:17;;;;;;;8.25;2.63;;;5.90;99.90;;;;;;5089293;28;20650;-76
2022/12/06 02:39:48;;;;;;;6.82;2.10;;;5.90;99.90;;;;;;5054819;28;20194;-76
2022/12/06 02:42:20;;;;;;;5.40;2.08;;;5.80;99.90;;;;;;5054564;28;20175;-76
2022/12/06 02:44:57;;;;;;;9.93;2.35;;;5.90;99.90;;;;;;5073916;28;20174;-76
2022/12/06 02:47:31;;;;;;;8.80;2.10;;;5.80;99.90;;;;;;5073463;28;20263;-76
2022/12/06 02:49:58;;;;;;;7.13;2.75;;;5.80;99.90;;;;;;5067532;28;20189;-76
2022/12/06 02:52:27;;;;;;;8.80;2.40;;;5.90;99.90;;;;;;5062385;28;20651;-76
2022/12/06 02:54:58;;;;;;;3.70;2.33;;;5.80;99.90;;;;;;5058535;28;20277;-75
2022/12/06 02:57:40;;;;;;;9.20;2.42;;;5.80;99.90;;;;;;5058622;28;20198;-76
2022/12/06 03:00:24;;;;;;;7.13;2.58;;;5.80;99.90;;;;;;5072533;28;20258;-76
2022/12/06 03:02:55;;;;;;;8.88;2.88;;;5.90;99.90;;;;;;5073418;28;20212;-76
2022/12/06 03:05:28;;;;;;;5.82;2.25;;;5.80;99.90;;;;;;5077377;28;20170;-76
2022/12/06 03:07:56;;;;;;;8.32;3.00;;;5.80;99.90;;;;;;5065671;28;20556;-76
2022/12/06 03:10:21;;;;;;;3.75;2.38;;;5.80;99.90;;;;;;5073336;28;20185;-76
2022/12/06 03:13:11;;;;;;;9.55;2.70;;;5.80;99.90;;;;;;5072461;28;20545;-76
2022/12/06 03:15:44;;;;;;;6.13;2.72;;;5.80;99.90;;;;;;5072745;28;20158;-77
2022/12/06 03:18:19;;;;;;;5.43;2.75;;;5.80;99.90;;;;;;5059275;28;20223;-77
2022/12/06 03:20:51;;;;;;;5.05;2.50;;;5.80;99.90;;;;;;5071856;28;20638;-76
2022/12/06 03:23:25;;;;;;;9.20;2.92;;;5.80;99.90;;;;;;5072703;28;20166;-76
2022/12/06 03:25:54;;;;;;;9.10;2.60;;;5.80;99.90;;;;;;5073535;28;20236;-77
2022/12/06 03:28:21;;;;;;;6.35;2.70;;;5.80;99.90;;;;;;5064760;28;20179;-76
2022/12/06 03:30:51;;;;;;;7.38;2.55;;;5.80;99.90;;;;;;5053553;28;20258;-76
2022/12/06 03:33:21;;;;;;;4.30;2.28;;;5.80;99.90;;;;;;5052993;28;20186;-76
2022/12/06 03:35:51;;;;;;;5.00;2.35;;;5.80;99.90;;;;;;5052924;28;20304;-76
2022/12/06 03:38:24;;;;;;;5.55;2.35;;;5.80;99.90;;;;;;5057983;28;20224;-77
2022/12/06 03:40:52;;;;;;;7.78;2.42;;;5.80;99.90;;;;;;5072108;28;20163;-77
2022/12/06 03:43:18;;;;;;;5.45;2.40;;;5.80;99.90;;;;;;5072788;28;20197;-76
2022/12/06 03:46:06;;;;;;;5.65;1.98;;;5.80;99.90;;;;;;5070291;28;20182;-76
2022/12/06 03:48:39;;;;;;;6.57;2.50;;;5.80;99.90;;;;;;5053607;28;20178;-76
2022/12/06 03:51:09;;;;;;;3.80;1.90;;;5.80;99.90;;;;;;5052805;28;20254;-76
2022/12/06 03:53:45;;;;;;;4.53;2.33;;;5.80;99.90;;;;;;5055669;28;20183;-77
2022/12/06 03:56:11;;;;;;;3.58;1.80;;;5.80;99.90;;;;;;5063265;28;20522;-76
2022/12/06 03:58:36;;;;;;;4.10;2.10;;;5.80;99.90;;;;;;5071970;28;20232;-77
2022/12/06 04:01:03;;;;;;;3.33;1.73;;;5.80;99.90;;;;;;5053688;28;20194;-76
2022/12/06 04:03:29;;;;;;;3.33;1.52;;;5.70;99.90;;;;;;5061370;28;20210;-76
2022/12/06 04:05:55;;;;;;;3.17;1.90;;;5.70;99.90;;;;;;5081904;28;20647;-77
2022/12/06 04:08:21;;;;;;;2.92;1.90;;;5.70;99.90;;;;;;5070516;28;20193;-76
2022/12/06 04:10:46;;;;;;;3.80;1.70;;;5.70;99.90;;;;;;5072438;28;20171;-75
2022/12/06 04:13:12;;;;;;;2.25;1.65;;;5.70;99.90;;;;;;5072420;28;20183;-76
2022/12/06 04:15:38;;;;;;;6.13;1.50;;;5.70;99.90;;;;;;5069917;28;20186;-76
2022/12/06 04:18:15;;;;;;;2.30;1.63;;;5.70;99.90;;;;;;5053605;28;20227;-77
2022/12/06 04:23:32;;;;;;;3.35;1.70;;;5.70;99.90;;;;;;5050616;28;20182;-76
2022/12/06 04:25:58;;;;;;;2.95;1.80;;;5.70;99.90;;;;;;5052462;28;20167;-76
2022/12/06 04:39:24;;;;;;;3.03;1.42;;;5.70;99.90;;;;;;5056643;28;20179;-76
2022/12/06 04:44:34;;;;;;;2.75;1.80;;;5.60;99.90;;;;;;5076121;28;20236;-76
2022/12/06 04:47:00;;;;;;;5.55;1.90;;;5.60;99.90;;;;;;5074916;28;20694;-77
2022/12/06 04:49:26;;;;;;;4.72;2.35;;;5.50;99.90;;;;;;5076058;28;20182;-76
2022/12/06 04:51:53;;;;;;;4.57;1.90;;;5.60;99.90;;;;;;5073646;28;20601;-76
2022/12/06 04:54:20;;;;;;;2.95;1.80;;;5.50;99.90;;;;;;5066401;28;20190;-77
2022/12/06 04:56:45;;;;;;;3.88;1.77;;;5.50;99.90;;;;;;5055589;28;20286;-76
2022/12/06 04:59:11;;;;;;;2.63;1.70;;;5.50;99.90;;;;;;5054879;28;20258;-76
2022/12/06 05:01:37;;;;;;;4.32;2.30;;;5.40;99.90;;;;;;5064034;28;20183;-77
2022/12/06 05:04:03;;;;;;;4.18;1.95;;;5.40;99.90;;;;;;5074149;28;20217;-76
2022/12/06 05:06:28;;;;;;;5.80;1.92;;;5.30;99.90;;;;;;5062891;28;20375;-76
2022/12/06 05:08:54;;;;;;;3.83;2.17;;;5.30;99.90;;;;;;5055666;28;20179;-77
2022/12/06 05:11:20;;;;;;;6.20;2.13;;;5.30;99.90;;;;;;5063469;28;20179;-76
2022/12/06 05:13:46;;;;;;;5.47;2.95;;;5.20;99.90;;;;;;5064419;28;20694;-76
2022/12/06 05:16:11;;;;;;;3.78;2.25;;;5.20;99.90;;;;;;5058527;28;20557;-76
2022/12/06 05:18:37;;;;;;;5.28;2.10;;;5.10;99.90;;;;;;5054355;28;20226;-76
2022/12/06 05:21:05;;;;;;;6.85;2.40;;;5.10;99.90;;;;;;5055698;28;20572;-76
2022/12/06 05:23:34;;;;;;;3.78;2.20;;;5.10;99.90;;;;;;5062096;28;20261;-76
2022/12/06 05:26:03;;;;;;;4.18;2.00;;;5.10;99.90;;;;;;5056313;28;20583;-77
2022/12/06 05:28:29;;;;;;;6.40;2.35;;;5.00;99.90;;;;;;5065180;28;20748;-77
2022/12/06 05:30:55;;;;;;;5.22;2.45;;;5.10;99.90;;;;;;5071311;28;20257;-76
2022/12/06 05:33:22;;;;;;;6.55;2.30;;;5.00;99.90;;;;;;5075495;28;20272;-76
2022/12/06 05:35:47;;;;;;;6.13;2.47;;;5.00;99.90;;;;;;5075225;28;20170;-76
2022/12/06 05:38:13;;;;;;;5.75;2.38;;;5.00;99.90;;;;;;5075009;28;20273;-76
2022/12/06 05:40:40;;;;;;;5.68;2.15;;;5.00;99.90;;;;;;5066451;28;20206;-76
2022/12/06 05:43:06;;;;;;;6.22;2.47;;;5.00;99.90;;;;;;5074982;28;20537;-76
2022/12/06 05:45:32;;;;;;;5.85;2.50;;;5.00;99.90;;;;;;5072990;28;20190;-77
2022/12/06 05:47:57;;;;;;;9.57;2.50;;;5.00;99.90;;;;;;5074307;28;20202;-76
2022/12/06 05:50:23;;;;;;;5.22;2.30;;;5.00;99.90;;;;;;5073569;28;20225;-80
2022/12/06 05:52:56;;;;;;;5.13;2.63;;;5.00;99.90;;;;;;5071334;28;20198;-79
2022/12/06 05:55:23;;;;;;;7.13;2.75;;;5.00;99.90;;;;;;5071916;28;20195;-76
2022/12/06 05:57:49;;;;;;;6.05;2.60;;;5.00;99.90;;;;;;5074671;28;20170;-76
2022/12/06 06:00:16;;;;;;;6.28;2.65;;;5.00;99.90;;;;;;5063705;28;20171;-76
2022/12/06 06:02:43;;;;;;;9.50;3.10;;;5.00;99.90;;;;;;5065356;28;20182;-76
2022/12/06 06:05:08;;;;;;;7.47;3.25;;;5.00;99.90;;;;;;5068021;28;20175;-77
2022/12/06 06:07:34;;;;;;;6.72;2.72;;;4.90;99.90;;;;;;5061859;28;20248;-77
2022/12/06 06:10:00;;;;;;;6.63;2.97;;;4.90;99.90;;;;;;5074401;28;20179;-76
2022/12/06 06:12:26;;;;;;;8.05;2.75;;;4.90;99.90;;;;;;5074203;28;20256;-76
2022/12/06 06:14:52;;;;;;;7.97;3.47;;;4.90;99.90;;;;;;5072102;28;20213;-79
2022/12/06 06:17:18;;;;;;;9.07;2.97;;;4.90;99.90;;;;;;5069615;28;20258;-76
2022/12/06 06:19:44;;;;;;;5.72;2.90;;;5.00;99.90;;;;;;5065084;28;20182;-76
2022/12/06 06:22:10;;;;;;;10.45;2.97;;;5.00;99.90;;;;;;5074244;28;20269;-77
2022/12/06 06:24:37;;;;;;;7.45;3.47;;;5.00;99.90;;;;;;5055689;28;20274;-76
2022/12/06 06:27:04;;;;;;;6.78;3.20;;;5.10;99.90;;;;;;5074126;28;20264;-75
2022/12/06 06:29:31;;;;;;;9.15;3.15;;;5.00;99.90;;;;;;5071443;28;20178;-75
2022/12/06 06:31:57;;;;;;;9.45;3.47;;;5.10;99.90;;;;;;5073697;28;20240;-75
2022/12/06 06:34:23;;;;;;;8.07;3.30;;;5.10;99.90;;;;;;5088882;28;20182;-75
2022/12/06 06:36:49;;;;;;;7.22;3.55;;;5.10;99.90;;;;;;5073182;28;20187;-76
2022/12/06 06:39:15;;;;;;;5.40;3.20;;;5.10;99.90;;;;;;5072586;28;20179;-77
2022/12/06 06:41:41;;;;;;;7.10;3.30;;;5.10;99.90;;;;;;5073524;28;20285;-75
2022/12/06 06:44:07;;;;;;;9.40;3.38;;;5.10;99.90;;;;;;5073869;28;20191;-77
2022/12/06 06:46:32;;;;;;;12.15;3.03;;;5.10;99.90;;;;;;5073665;28;20310;-76
2022/12/06 06:48:58;;;;;;;7.03;3.30;;;5.10;99.90;;;;;;5068812;28;20198;-77
2022/12/06 06:51:24;;;;;;;8.50;3.30;;;5.20;99.90;;;;;;5064884;28;20215;-76
2022/12/06 06:53:49;;;;;;;7.38;2.90;;;5.10;99.90;;;;;;5065944;28;20210;-81
2022/12/06 06:56:15;;;;;;;7.70;2.92;;;5.10;99.90;;;;;;5073280;28;20261;-76
2022/12/06 06:58:41;;;;;;;9.18;3.13;;;5.10;99.90;;;;;;5071741;28;20641;-76
2022/12/06 07:01:08;;;;;;;6.50;3.60;;;5.10;99.90;;;;;;5071712;28;20185;-76
2022/12/06 07:03:34;;;;;;;7.95;3.60;;;5.10;99.90;;;;;;5073113;28;20175;-75
2022/12/06 07:06:06;;;;;;;9.57;3.72;;;5.00;99.90;;;;;;5080926;28;20187;-76
2022/12/06 07:08:33;;;;;;;12.43;3.63;;;5.10;99.90;;;;;;5068741;28;20261;-76
2022/12/06 07:10:59;;;;;;;7.68;3.85;;;5.00;99.90;;;;;;5066058;28;20342;-77
2022/12/06 07:13:26;;;;;;;8.00;3.60;;;5.00;99.90;;;;;;5071004;28;20549;-76
2022/12/06 07:15:52;;;;;;;9.40;3.78;;;5.00;99.90;;;;;;5072702;28;20179;-79
2022/12/06 07:18:19;;;;;;;11.60;4.68;;;5.00;99.90;;;;;;5070786;28;20728;-76
2022/12/06 07:20:45;;;;;;;12.55;4.18;;;5.00;99.90;;;;;;5054603;28;20186;-76
2022/12/06 07:23:12;;;;;;;12.35;4.93;;;4.90;99.90;;;;;;5052456;28;20551;-76
2022/12/06 07:25:37;;;;;;;11.38;4.05;;;4.90;99.90;;;;;;5053047;28;20210;-76
2022/12/06 07:28:03;;;;;;;9.63;4.28;;;4.90;99.90;;;;;;5066019;28;20637;-76
2022/12/06 07:30:29;;;;;;;9.40;4.22;;;4.90;99.90;;;;;;5072985;28;20206;-75
2022/12/06 07:32:56;;;;;;;13.77;4.15;;;5.00;99.90;;;;;;5072866;28;20206;-75
2022/12/06 07:35:21;;;;;;;12.45;4.43;;;4.90;99.90;;;;;;5073391;28;20261;-76
2022/12/06 07:37:47;;;;;;;10.45;4.60;;;5.00;99.90;;;;;;5071949;28;20651;-76
2022/12/06 07:40:15;;;;;;;10.13;4.75;;;4.90;99.90;;;;;;5073471;28;20178;-77
2022/12/06 07:45:25;;;;;;;12.63;5.03;;;4.90;99.90;;;;;;5070259;28;20194;-75
2022/12/06 07:47:51;;;;;;;11.73;4.75;;;4.90;99.90;;;;;;5073164;28;20633;-75
2022/12/06 07:50:21;;;;;;;9.25;4.97;;;4.90;99.90;;;;;;5073213;28;20214;-75
2022/12/06 07:52:48;;;;;;;12.60;5.60;;;4.90;99.90;;;;;;5072249;28;20174;-76
2022/12/06 07:55:15;;;;;;;9.00;5.35;;;4.90;99.90;;;;;;5071309;28;20182;-76
2022/12/06 07:57:42;;;;;;;11.73;5.20;;;4.90;99.90;;;;;;5073048;28;20641;-75
2022/12/06 08:00:09;;;;;;;10.57;5.30;;;5.00;99.90;;;;;;5068966;28;20179;-76
2022/12/06 08:02:38;;;;;;;13.18;5.82;;;4.90;99.90;;;;;;5072915;28;20512;-76
2022/12/06 08:05:04;;;;;;;12.10;4.93;;;5.00;99.90;;;;;;5065517;28;20244;-75
2022/12/06 08:07:31;;;;;;;11.30;5.05;;;5.10;99.90;;;;;;5070449;28;20210;-76
2022/12/06 08:09:57;;;;;;;10.18;5.22;;;5.10;99.90;;;;;;5072305;28;20631;-78
2022/12/06 08:12:24;;;;;;;13.35;5.05;;;5.20;99.90;;;;;;5084142;28;20245;-78
2022/12/06 08:14:50;;;;;;;17.88;4.88;;;5.30;99.90;;;;;;5062991;28;20223;-77
2022/12/06 08:17:15;;;;;;;9.88;5.03;;;5.30;99.90;;;;;;5064511;28;20226;-77
2022/12/06 08:19:41;;;;;;;9.98;5.43;;;5.30;99.90;;;;;;5066255;28;20536;-77
2022/12/06 08:22:07;;;;;;;10.15;4.65;;;5.40;99.90;;;;;;5052870;28;20713;-76
2022/12/06 08:24:33;;;;;;;7.60;4.50;;;5.40;99.90;;;;;;5052484;28;20179;-76
2022/12/06 08:26:59;;;;;;;6.72;4.47;;;5.40;99.90;;;;;;5052456;28;20200;-76
2022/12/06 08:29:25;;;;;;;9.30;4.78;;;5.50;99.90;;;;;;5068101;28;20194;-76
2022/12/06 08:31:51;;;;;;;11.35;4.97;;;5.50;99.90;;;;;;5052353;28;20188;-76
2022/12/06 08:34:16;;;;;;;7.90;4.55;;;5.50;99.90;;;;;;5052325;28;20191;-79
2022/12/06 08:36:43;;;;;;;12.15;4.60;;;5.60;99.90;;;;;;5071693;28;20186;-76
2022/12/06 08:39:11;;;;;;;8.88;4.32;;;5.60;99.90;;;;;;5069972;28;20186;-76
2022/12/06 08:41:54;;;;;;;6.47;4.30;;;5.60;99.90;;;;;;5068496;28;20190;-78
2022/12/06 08:44:21;;;;;;;7.88;3.92;;;5.60;99.90;;;;;;5068018;28;20562;-82
2022/12/06 08:46:47;;;;;;;6.63;3.78;;;5.70;99.90;;;;;;5060951;28;20234;-76
2022/12/06 08:49:15;;;;;;;8.93;3.80;;;5.70;99.90;;;;;;5070807;28;20194;-76
2022/12/06 08:51:41;;;;;;;6.18;3.83;;;5.70;99.90;;;;;;5071769;28;20183;-76
2022/12/06 08:54:08;;;;;;;15.60;4.88;;;5.70;99.90;;;;;;5070772;28;20183;-82
2022/12/06 08:56:35;;;;;;;11.43;4.85;;;5.70;99.90;;;;;;5066676;28;20190;-76
2022/12/06 08:59:01;;;;;;;11.05;4.90;;;5.80;99.90;;;;;;5059966;28;20179;-79
2022/12/06 09:01:29;;;;;;;10.18;5.00;;;5.80;99.90;;;;;;5056871;28;20175;-76
2022/12/06 09:03:57;;;;;;;9.13;5.50;;;5.90;99.90;;;;;;5072419;28;20226;-78
2022/12/06 09:06:23;;;;;;;11.55;6.00;;;5.90;99.90;;;;;;5072252;28;20230;-75
2022/12/06 09:08:49;;;;;;;13.30;6.50;;;6.00;99.90;;;;;;5067871;28;20195;-77
2022/12/06 09:11:17;;;;;;;12.70;6.20;;;6.20;99.90;;;;;;5067430;28;20174;-75
2022/12/06 09:13:43;;;;;;;12.40;5.35;;;6.50;99.90;;;;;;5069969;28;20601;-76
2022/12/06 09:16:14;;;;;;;9.20;5.20;;;6.90;99.90;;;;;;5072553;28;20229;-76
2022/12/06 09:18:41;;;;;;;10.95;4.90;;;7.20;99.90;;;;;;5069950;28;20222;-76
2022/12/06 09:21:09;;;;;;;11.13;5.00;;;7.40;99.90;;;;;;5066987;28;20174;-80
2022/12/06 09:23:36;;;;;;;12.63;5.18;;;7.50;99.90;;;;;;5074180;28;20236;-77
2022/12/06 09:26:03;;;;;;;9.80;4.85;;;7.50;99.90;;;;;;5070073;28;20187;-77
2022/12/06 09:28:29;;;;;;;8.82;4.43;;;7.40;99.90;;;;;;5055298;28;20187;-77
2022/12/06 09:30:56;;;;;;;6.85;3.85;;;7.60;99.90;;;;;;5054107;28;20548;-77
2022/12/06 09:33:23;;;;;;;9.57;3.63;;;7.80;99.90;;;;;;5066198;28;20193;-77
2022/12/06 09:35:52;;;;;;;11.80;3.15;;;8.20;99.90;;;;;;5073726;28;20187;-78
2022/12/06 09:38:21;;;;;;;7.50;3.80;;;8.60;99.90;;;;;;5075391;28;20186;-77
2022/12/06 09:40:57;;;;;;;7.20;3.70;;;8.90;99.90;;;;;;5075318;28;20175;-77
2022/12/06 09:43:47;;;;;;;5.20;3.35;;;9.40;99.90;;;;;;5074124;28;20190;-77
2022/12/06 09:46:44;;;;;;;7.82;3.97;;;9.80;99.90;;;;;;5066579;28;20534;-77
2022/12/06 09:49:25;;;;;;;6.80;3.90;;;10.20;99.90;;;;;;5074373;28;20281;-77
2022/12/06 09:52:03;;;;;;;11.25;4.45;;;10.50;99.90;;;;;;5073955;28;20544;-77
2022/12/06 09:54:46;;;;;;;11.35;4.50;;;10.50;99.90;;;;;;5074138;28;20642;-77
2022/12/06 09:57:17;;;;;;;12.25;4.80;;;10.50;99.90;;;;;;5074795;28;20186;-76
2022/12/06 10:00:21;;;;;;;11.10;5.10;;;10.40;99.90;;;;;;5072041;28;20183;-78
2022/12/06 10:03:15;;;;;;;9.18;4.50;;;10.30;99.90;;;;;;5010359;28;20222;-76
2022/12/06 10:06:01;;;;;;;8.32;4.40;;;10.40;99.90;;;;;;5009229;28;20223;-77
2022/12/06 10:08:42;;;;;;;11.38;4.40;;;10.60;99.90;;;;;;5061822;28;20198;-81
2022/12/06 10:11:26;;;;;;;10.32;4.63;;;10.80;99.90;;;;;;5070334;28;20178;-77
2022/12/06 10:14:22;;;;;;;7.63;4.40;;;11.10;99.90;;;;;;5073230;28;20170;-77
2022/12/06 10:17:08;;;;;;;6.25;3.90;;;11.50;99.90;;;;;;5067053;28;20227;-77
2022/12/06 10:19:46;;;;;;;6.35;3.92;;;11.60;99.90;;;;;;5070464;28;20179;-78
2022/12/06 10:22:17;;;;;;;7.15;3.72;;;11.80;99.90;;;;;;5054468;28;20217;-77
2022/12/06 10:24:49;;;;;;;7.30;4.50;;;12.00;99.90;;;;;;5055012;28;20168;-80
2022/12/06 10:27:28;;;;;;;9.85;4.10;;;12.20;99.90;;;;;;5072218;28;20252;-77
2022/12/06 10:30:03;;;;;;;10.02;3.90;;;12.40;99.90;;;;;;5065074;28;20229;-77
2022/12/06 10:32:53;;;;;;;6.63;4.10;;;12.60;99.90;;;;;;5053731;28;20560;-76
2022/12/06 10:35:42;;;;;;;5.68;3.50;;;12.60;99.90;;;;;;5069554;28;20695;-77
2022/12/06 10:38:15;;;;;;;5.75;3.30;;;12.30;99.90;;;;;;5071653;28;20237;-77
2022/12/06 10:40:45;;;;;;;8.57;3.47;;;12.10;99.90;;;;;;5072958;28;20206;-86
2022/12/06 10:43:10;;;;;;;7.15;3.20;;;11.90;99.90;;;;;;5072524;28;20175;-76
2022/12/06 10:48:52;;;;;;;6.28;3.55;;;11.50;99.90;;;;;;5074019;28;20258;-77
2022/12/06 10:51:28;;;;;;;8.02;2.90;;;11.30;99.90;;;;;;5073745;28;20179;-76
2022/12/06 10:54:01;;;;;;;3.72;2.28;;;11.10;99.90;;;;;;5065433;28;20235;-77
2022/12/06 10:56:30;;;;;;;6.38;2.00;;;10.80;99.90;;;;;;5073748;28;20170;-76
2022/12/06 10:59:35;;;;;;;5.18;2.47;;;10.60;99.90;;;;;;5072916;28;20207;-76
2022/12/06 11:02:16;;;;;;;4.15;2.03;;;10.30;99.90;;;;;;5069908;28;20186;-77
2022/12/06 11:04:44;;;;;;;6.00;2.47;;;10.10;99.90;;;;;;5073272;28;20577;-76
2022/12/06 11:07:24;;;;;;;5.18;2.33;;;9.90;99.90;;;;;;5085740;28;20214;-77
2022/12/06 11:09:53;;;;;;;3.08;1.90;;;9.80;99.90;;;;;;5053957;28;20180;-83
2022/12/06 11:12:28;;;;;;;7.00;2.42;;;9.70;99.90;;;;;;5053524;28;20182;-77
2022/12/06 11:15:17;;;;;;;5.03;2.53;;;9.70;99.90;;;;;;5064341;28;20210;-77
2022/12/06 11:17:47;;;;;;;4.75;2.70;;;9.80;99.90;;;;;;5070167;28;20251;-77
2022/12/06 11:20:27;;;;;;;6.07;2.88;;;10.10;99.90;;;;;;5054110;28;20564;-77
2022/12/06 11:23:05;;;;;;;3.67;2.58;;;10.40;99.90;;;;;;5073018;28;20170;-76
2022/12/06 11:25:51;;;;;;;4.35;2.13;;;10.60;99.90;;;;;;5069995;28;20181;-76
2022/12/06 11:28:43;;;;;;;5.90;2.47;;;10.60;99.90;;;;;;5072418;28;20289;-76
2022/12/06 11:31:22;;;;;;;7.95;2.60;;;10.60;99.90;;;;;;5073099;28;20307;-76
2022/12/06 11:33:48;;;;;;;5.50;2.60;;;10.60;99.90;;;;;;5072963;28;20250;-76
2022/12/06 11:36:14;;;;;;;2.75;2.10;;;10.50;99.90;;;;;;5068267;28;20270;-76
2022/12/06 11:38:42;;;;;;;4.72;2.95;;;10.40;99.90;;;;;;5070777;28;20676;-76
2022/12/06 11:41:12;;;;;;;4.68;2.75;;;10.20;99.90;;;;;;5072853;28;20220;-76
2022/12/06 11:43:38;;;;;;;5.47;2.90;;;10.20;99.90;;;;;;5054540;28;20183;-76
2022/12/06 11:46:05;;;;;;;4.47;3.00;;;10.40;99.90;;;;;;5057372;28;20183;-76
2022/12/06 11:48:33;;;;;;;9.40;3.10;;;10.60;99.90;;;;;;5069199;28;20203;-76
2022/12/06 11:50:59;;;;;;;5.47;3.15;;;10.80;99.90;;;;;;5071846;28;20245;-76
2022/12/06 11:53:56;;;;;;;4.95;3.45;;;10.80;99.90;;;;;;5072163;28;20178;-76
2022/12/06 11:56:29;;;;;;;10.57;3.05;;;10.90;99.90;;;;;;5072430;28;20174;-75
2022/12/06 11:59:07;;;;;;;6.13;2.92;;;11.00;99.90;;;;;;5067770;28;20195;-75
2022/12/06 12:01:42;;;;;;;6.25;2.45;;;11.20;99.90;;;;;;5071475;28;20173;-76
2022/12/06 12:04:32;;;;;;;6.28;2.20;;;11.50;99.90;;;;;;5071477;28;20174;-76
2022/12/06 12:07:04;;;;;;;3.83;2.47;;;11.60;99.90;;;;;;5072870;28;20201;-77
2022/12/06 12:09:34;;;;;;;5.53;2.90;;;11.80;99.90;;;;;;5064735;28;20194;-75
2022/12/06 12:12:11;;;;;;;3.78;2.45;;;12.00;99.90;;;;;;5072323;28;20251;-76
2022/12/06 12:14:39;;;;;;;5.45;2.75;;;12.20;99.90;;;;;;5072641;28;20170;-76
2022/12/06 12:17:19;;;;;;;6.57;2.60;;;12.30;99.90;;;;;;5071837;28;20697;-75
2022/12/06 12:20:06;;;;;;;7.45;2.40;;;12.50;99.90;;;;;;5069779;28;20212;-86
2022/12/06 12:22:41;;;;;;;4.07;3.17;;;12.60;99.90;;;;;;5058411;28;20651;-77
2022/12/06 12:25:21;;;;;;;4.30;2.70;;;12.60;99.90;;;;;;5061877;28;20181;-78
2022/12/06 12:27:49;;;;;;;6.00;2.72;;;12.40;99.90;;;;;;5057643;28;20202;-77
2022/12/06 12:30:16;;;;;;;4.60;3.13;;;12.20;99.90;;;;;;5052326;28;20492;-77
2022/12/06 12:32:43;;;;;;;6.22;2.50;;;12.00;99.90;;;;;;5053083;28;20495;-76
2022/12/06 12:35:36;;;;;;;3.80;2.00;;;11.80;99.90;;;;;;5068542;28;20676;-76
2022/12/06 12:38:08;;;;;;;3.50;1.85;;;11.50;99.90;;;;;;5067572;28;20230;-77
2022/12/06 12:41:02;;;;;;;5.35;2.40;;;11.40;99.90;;;;;;5057028;28;20182;-77
2022/12/06 12:43:33;;;;;;;5.05;2.13;;;11.20;99.90;;;;;;5052329;28;20251;-76
2022/12/06 12:46:11;;;;;;;5.00;2.30;;;11.00;99.90;;;;;;5077363;28;20182;-77
2022/12/06 12:48:39;;;;;;;4.35;2.70;;;10.80;99.90;;;;;;5071341;28;20321;-77
2022/12/06 12:51:27;;;;;;;4.18;2.65;;;10.70;99.90;;;;;;5071825;28;20175;-77
2022/12/06 12:53:59;;;;;;;6.18;3.22;;;10.60;99.90;;;;;;5068217;28;20666;-76
2022/12/06 12:56:25;;;;;;;8.68;2.78;;;10.60;99.90;;;;;;5073385;28;20182;-77
2022/12/06 12:58:54;;;;;;;4.38;2.72;;;10.50;99.90;;;;;;5076374;28;20521;-77
2022/12/06 13:01:41;;;;;;;5.88;2.60;;;10.40;99.90;;;;;;5076021;28;20185;-77
2022/12/06 13:04:25;;;;;;;5.72;2.53;;;10.40;99.90;;;;;;5075742;28;20633;-77
2022/12/06 13:06:58;;;;;;;4.20;2.42;;;10.30;99.90;;;;;;5064061;28;20198;-77
2022/12/06 13:09:29;;;;;;;4.65;2.55;;;10.30;99.90;;;;;;5059746;28;20206;-78
2022/12/06 13:12:13;;;;;;;4.43;2.55;;;10.20;99.90;;;;;;5072087;28;20174;-78
2022/12/06 13:14:48;;;;;;;4.85;2.75;;;10.10;99.90;;;;;;5071287;28;20265;-76
2022/12/06 13:17:13;;;;;;;5.57;2.63;;;10.10;99.90;;;;;;5075573;28;20218;-76
2022/12/06 13:19:45;;;;;;;7.25;2.65;;;10.00;99.90;;;;;;5072394;28;20202;-75
2022/12/06 13:22:19;;;;;;;7.25;2.65;;;10.00;99.90;;;;;;5090096;28;20175;-77
2022/12/06 13:25:01;;;;;;;6.40;2.90;;;9.90;99.90;;;;;;5074789;28;20183;-76
2022/12/06 13:27:33;;;;;;;9.52;3.15;;;9.80;99.90;;;;;;5080262;28;20206;-76
2022/12/06 13:30:12;;;;;;;6.55;3.22;;;9.80;99.90;;;;;;5057146;28;20447;-77
2022/12/06 13:32:48;;;;;;;9.40;3.35;;;9.70;99.90;;;;;;5070498;28;20182;-77
2022/12/06 13:35:39;;;;;;;6.05;3.22;;;9.70;99.90;;;;;;5074557;28;20253;-76